Club Med II — FNIR — position and weather

sailwx.info

Track history (hours):
 
Tides and Currents Weather Stations Pressure Air Temp Water Temp Dewpoint Dewpoint Depression Visibility Wind Speed Wind Dir Waves Ship Positions

Club Med II

Operator: V.Ships Leisure S.A.M

Last reported at 2018-Feb-22 15:00 UTC. Time now 2018-Feb-22 15:01 UTC.
Position N 17°00' W 061°47'.

Length 187 m; draft 5.3 m.

Type: Ship. MMSI: 227194000.

Date/timePositionNaut miles runAvg speedWind from/ knotsBaromVisibWave heightAir tempDewpointWater temp
2018-Feb-22 15:00N 17°00' W 061°47'0 0.1
2018-Feb-22 14:30N 17°00' W 061°47'0 0.0
2018-Feb-22 14:00N 17°00' W 061°47'0 0.1
2018-Feb-22 13:30N 17°00' W 061°47'0 0.1
2018-Feb-22 13:00N 17°00' W 061°47'4 8.8
2018-Feb-22 12:30N 16°59' W 061°51'612.9
2018-Feb-22 12:00N 17°00' W 061°58'713.7
2018-Feb-22 11:30N 17°04' W 062°04'713.4
2018-Feb-22 11:00N 17°09' W 062°09'713.4
2018-Feb-22 10:30N 17°14' W 062°14'713.7
2018-Feb-22 10:01N 17°19' W 062°19'713.8
2018-Feb-22 09:30N 17°24' W 062°24'713.4
2018-Feb-22 09:00N 17°29' W 062°29'34 2.7
2018-Feb-21 20:17N 17°54' W 062°52'0 0.2
2018-Feb-21 19:59N 17°54' W 062°52'0 0.1
2018-Feb-21 19:17N 17°54' W 062°52'0 0.0
2018-Feb-21 18:44N 17°54' W 062°52'0 0.0
2018-Feb-21 18:14N 17°54' W 062°52'0 0.0
2018-Feb-21 17:59N 17°54' W 062°52'0 0.0
2018-Feb-21 17:20N 17°54' W 062°52'0 0.0
2018-Feb-21 16:47N 17°54' W 062°52'0 0.0
2018-Feb-21 16:21N 17°54' W 062°52'0 0.0
2018-Feb-21 15:50N 17°54' W 062°52'0 0.1
2018-Feb-21 15:23N 17°54' W 062°52'0 0.0
2018-Feb-21 14:50N 17°54' W 062°52'0 0.0
2018-Feb-21 13:38N 17°54' W 062°52'0 0.0
2018-Feb-21 13:20N 17°54' W 062°52'0 0.0
2018-Feb-21 12:35N 17°54' W 062°52'0 0.0
2018-Feb-21 12:11N 17°54' W 062°52'0 0.0
2018-Feb-21 08:29N 17°54' W 062°52'0 0.0
2018-Feb-21 06:56N 17°54' W 062°52'0 0.0
2018-Feb-21 06:29N 17°54' W 062°52'0 0.0
2018-Feb-21 02:20N 17°54' W 062°52'0 0.0
2018-Feb-20 23:50N 17°54' W 062°52'0 0.0
2018-Feb-20 23:08N 17°54' W 062°52'0 0.0
2018-Feb-20 21:05N 17°54' W 062°52'0 0.0
2018-Feb-20 20:53N 17°54' W 062°52'0 0.0
2018-Feb-20 19:08N 17°54' W 062°52'0 0.0
2018-Feb-20 17:08N 17°54' W 062°52'0 0.0
2018-Feb-20 16:59N 17°54' W 062°52'0 0.0
2018-Feb-20 15:50N 17°54' W 062°52'0 0.0
2018-Feb-20 15:30N 17°54' W 062°52'0 0.0
2018-Feb-20 14:53N 17°54' W 062°52'0 0.0
2018-Feb-20 14:30N 17°54' W 062°52'0 0.0
2018-Feb-20 13:48N 17°54' W 062°52'0 0.0
2018-Feb-20 13:20N 17°54' W 062°52'0 0.0
2018-Feb-20 12:58N 17°54' W 062°52'0 0.1
2018-Feb-20 11:22N 17°54' W 062°52'0 0.3
2018-Feb-20 10:57N 17°54' W 062°52'1 3.0
2018-Feb-20 10:30N 17°54' W 062°54'5 8.2
2018-Feb-20 09:55N 17°49' W 062°55'511.5
2018-Feb-20 09:29N 17°44' W 062°54'1010.8
2018-Feb-20 08:31N 17°34' W 062°55'2 8.6
2018-Feb-20 08:18N 17°32' W 062°55'2 8.1
2018-Feb-20 08:00N 17°30' W 062°55'4 7.5
2018-Feb-20 07:28N 17°26' W 062°55'4 7.3
2018-Feb-20 06:52N 17°21' W 062°54'4 3.7
2018-Feb-20 05:53N 17°18' W 062°52'2 4.0
2018-Feb-20 05:23N 17°20' W 062°53'1 3.3
2018-Feb-20 04:57N 17°21' W 062°53'2 4.1
2018-Feb-20 04:24N 17°20' W 062°52'2 4.1
2018-Feb-20 03:49N 17°19' W 062°49'2 5.4
2018-Feb-20 03:27N 17°17' W 062°48'3 5.4
2018-Feb-20 02:59N 17°16' W 062°46'1 0.3
2018-Feb-20 01:06N 17°15' W 062°45'0 2.6
2018-Feb-20 00:56N 17°16' W 062°46'1 2.8
2018-Feb-20 00:28N 17°16' W 062°47'2 3.2
2018-Feb-19 23:56N 17°17' W 062°48'1 0.6
2018-Feb-19 22:26N 17°17' W 062°48'4 2.6
2018-Feb-19 21:02N 17°17' W 062°44'0 0.0
2018-Feb-19 20:02N 17°17' W 062°44'7 0.3
2018-Feb-18 21:48N 17°11' W 062°42'4 0.4
2018-Feb-18 11:20N 17°09' W 062°38'2 6.4
2018-Feb-18 10:58N 17°07' W 062°39'4 8.5
2018-Feb-18 10:30N 17°03' W 062°39'11 8.7
2018-Feb-18 09:16N 16°53' W 062°35'9 8.6
2018-Feb-18 08:15N 16°45' W 062°31'2 8.6
2018-Feb-18 08:00N 16°43' W 062°30'4 8.5
2018-Feb-18 07:30N 16°39' W 062°29'6 9.1
2018-Feb-18 06:54N 16°34' W 062°27'4 9.5
2018-Feb-18 06:30N 16°30' W 062°25'8 9.6
2018-Feb-18 05:38N 16°23' W 062°22'1 9.5
2018-Feb-18 05:30N 16°22' W 062°21'41 6.8
2018-Feb-17 23:28N 15°57' W 061°47'4 6.6
2018-Feb-17 22:48N 15°55' W 061°43'5 0.5
2018-Feb-17 11:56N 15°51' W 061°40'610.1
2018-Feb-17 11:22N 15°45' W 061°39'914.0
2018-Feb-17 10:45N 15°37' W 061°36'6713.2
2018-Feb-17 05:41N 14°36' W 061°07'213.0
2018-Feb-17 05:30N 14°35' W 061°05'2 2.9
2018-Feb-17 04:58N 14°36' W 061°04'0 0.0
2018-Feb-17 04:28N 14°36' W 061°04'0 0.0
2018-Feb-17 03:58N 14°36' W 061°04'0 0.0
2018-Feb-17 03:28N 14°36' W 061°04'0 0.0
2018-Feb-17 02:58N 14°36' W 061°04'0 0.0
2018-Feb-17 02:28N 14°36' W 061°04'0 0.0
2018-Feb-17 01:58N 14°36' W 061°04'0 0.0
2018-Feb-17 01:28N 14°36' W 061°04'0 0.0
2018-Feb-17 00:52N 14°36' W 061°04'0 0.0
2018-Feb-17 00:13N 14°36' W 061°04'0 0.0
2018-Feb-16 23:58N 14°36' W 061°04'0 0.0
2018-Feb-16 23:28N 14°36' W 061°04'0 0.0
2018-Feb-16 12:04N 14°36' W 061°04'0 0.0
2018-Feb-16 11:52N 14°36' W 061°04'0 0.1
2018-Feb-16 11:27N 14°36' W 061°04'2 4.2
2018-Feb-16 11:00N 14°35' W 061°05'5 9.5
2018-Feb-16 10:30N 14°31' W 061°08'4 8.4
2018-Feb-16 10:00N 14°27' W 061°10'5 9.4
2018-Feb-16 09:26N 14°22' W 061°12'  
Track history (hours):
 
Tides and Currents Weather Stations Pressure Air Temp Water Temp Dewpoint Dewpoint Depression Visibility Wind Speed Wind Dir Waves Ship Positions

Club Med II

Operator: V.Ships Leisure S.A.M

Last reported at 2018-Feb-22 15:00 UTC. Time now 2018-Feb-22 15:01 UTC.
Position N 17°00' W 061°47'.

Length 187 m; draft 5.3 m.

Type: Ship. MMSI: 227194000.

Date/timePositionNaut miles runAvg speedWind from/ knotsBaromVisibWave heightAir tempDewpointWater temp
2018-Feb-22 15:00N 17°00' W 061°47'0 0.1
2018-Feb-22 14:30N 17°00' W 061°47'0 0.0
2018-Feb-22 14:00N 17°00' W 061°47'0 0.1
2018-Feb-22 13:30N 17°00' W 061°47'0 0.1
2018-Feb-22 13:00N 17°00' W 061°47'4 8.8
2018-Feb-22 12:30N 16°59' W 061°51'612.9
2018-Feb-22 12:00N 17°00' W 061°58'713.7
2018-Feb-22 11:30N 17°04' W 062°04'713.4
2018-Feb-22 11:00N 17°09' W 062°09'713.4
2018-Feb-22 10:30N 17°14' W 062°14'713.7
2018-Feb-22 10:01N 17°19' W 062°19'713.8
2018-Feb-22 09:30N 17°24' W 062°24'713.4
2018-Feb-22 09:00N 17°29' W 062°29'34 2.7
2018-Feb-21 20:17N 17°54' W 062°52'0 0.2
2018-Feb-21 19:59N 17°54' W 062°52'0 0.1
2018-Feb-21 19:17N 17°54' W 062°52'0 0.0
2018-Feb-21 18:44N 17°54' W 062°52'0 0.0
2018-Feb-21 18:14N 17°54' W 062°52'0 0.0
2018-Feb-21 17:59N 17°54' W 062°52'0 0.0
2018-Feb-21 17:20N 17°54' W 062°52'0 0.0
2018-Feb-21 16:47N 17°54' W 062°52'0 0.0
2018-Feb-21 16:21N 17°54' W 062°52'0 0.0
2018-Feb-21 15:50N 17°54' W 062°52'0 0.1
2018-Feb-21 15:23N 17°54' W 062°52'0 0.0
2018-Feb-21 14:50N 17°54' W 062°52'0 0.0
2018-Feb-21 13:38N 17°54' W 062°52'0 0.0
2018-Feb-21 13:20N 17°54' W 062°52'0 0.0
2018-Feb-21 12:35N 17°54' W 062°52'0 0.0
2018-Feb-21 12:11N 17°54' W 062°52'0 0.0
2018-Feb-21 08:29N 17°54' W 062°52'0 0.0
2018-Feb-21 06:56N 17°54' W 062°52'0 0.0
2018-Feb-21 06:29N 17°54' W 062°52'0 0.0
2018-Feb-21 02:20N 17°54' W 062°52'0 0.0
2018-Feb-20 23:50N 17°54' W 062°52'0 0.0
2018-Feb-20 23:08N 17°54' W 062°52'0 0.0
2018-Feb-20 21:05N 17°54' W 062°52'0 0.0
2018-Feb-20 20:53N 17°54' W 062°52'0 0.0
2018-Feb-20 19:08N 17°54' W 062°52'0 0.0
2018-Feb-20 17:08N 17°54' W 062°52'0 0.0
2018-Feb-20 16:59N 17°54' W 062°52'0 0.0
2018-Feb-20 15:50N 17°54' W 062°52'0 0.0
2018-Feb-20 15:30N 17°54' W 062°52'0 0.0
2018-Feb-20 14:53N 17°54' W 062°52'0 0.0
2018-Feb-20 14:30N 17°54' W 062°52'0 0.0
2018-Feb-20 13:48N 17°54' W 062°52'0 0.0
2018-Feb-20 13:20N 17°54' W 062°52'0 0.0
2018-Feb-20 12:58N 17°54' W 062°52'0 0.1
2018-Feb-20 11:22N 17°54' W 062°52'0 0.3
2018-Feb-20 10:57N 17°54' W 062°52'1 3.0
2018-Feb-20 10:30N 17°54' W 062°54'5 8.2
2018-Feb-20 09:55N 17°49' W 062°55'511.5
2018-Feb-20 09:29N 17°44' W 062°54'1010.8
2018-Feb-20 08:31N 17°34' W 062°55'2 8.6
2018-Feb-20 08:18N 17°32' W 062°55'2 8.1
2018-Feb-20 08:00N 17°30' W 062°55'4 7.5
2018-Feb-20 07:28N 17°26' W 062°55'4 7.3
2018-Feb-20 06:52N 17°21' W 062°54'4 3.7
2018-Feb-20 05:53N 17°18' W 062°52'2 4.0
2018-Feb-20 05:23N 17°20' W 062°53'1 3.3
2018-Feb-20 04:57N 17°21' W 062°53'2 4.1
2018-Feb-20 04:24N 17°20' W 062°52'2 4.1
2018-Feb-20 03:49N 17°19' W 062°49'2 5.4
2018-Feb-20 03:27N 17°17' W 062°48'3 5.4
2018-Feb-20 02:59N 17°16' W 062°46'1 0.3
2018-Feb-20 01:06N 17°15' W 062°45'0 2.6
2018-Feb-20 00:56N 17°16' W 062°46'1 2.8
2018-Feb-20 00:28N 17°16' W 062°47'2 3.2
2018-Feb-19 23:56N 17°17' W 062°48'1 0.6
2018-Feb-19 22:26N 17°17' W 062°48'4 2.6
2018-Feb-19 21:02N 17°17' W 062°44'0 0.0
2018-Feb-19 20:02N 17°17' W 062°44'7 0.3
2018-Feb-18 21:48N 17°11' W 062°42'4 0.4
2018-Feb-18 11:20N 17°09' W 062°38'2 6.4
2018-Feb-18 10:58N 17°07' W 062°39'4 8.5
2018-Feb-18 10:30N 17°03' W 062°39'11 8.7
2018-Feb-18 09:16N 16°53' W 062°35'9 8.6
2018-Feb-18 08:15N 16°45' W 062°31'2 8.6
2018-Feb-18 08:00N 16°43' W 062°30'4 8.5
2018-Feb-18 07:30N 16°39' W 062°29'6 9.1
2018-Feb-18 06:54N 16°34' W 062°27'4 9.5
2018-Feb-18 06:30N 16°30' W 062°25'8 9.6
2018-Feb-18 05:38N 16°23' W 062°22'1 9.5
2018-Feb-18 05:30N 16°22' W 062°21'41 6.8
2018-Feb-17 23:28N 15°57' W 061°47'4 6.6
2018-Feb-17 22:48N 15°55' W 061°43'5 0.5
2018-Feb-17 11:56N 15°51' W 061°40'610.1
2018-Feb-17 11:22N 15°45' W 061°39'914.0
2018-Feb-17 10:45N 15°37' W 061°36'6713.2
2018-Feb-17 05:41N 14°36' W 061°07'213.0
2018-Feb-17 05:30N 14°35' W 061°05'2 2.9
2018-Feb-17 04:58N 14°36' W 061°04'0 0.0
2018-Feb-17 04:28N 14°36' W 061°04'0 0.0
2018-Feb-17 03:58N 14°36' W 061°04'0 0.0
2018-Feb-17 03:28N 14°36' W 061°04'0 0.0
2018-Feb-17 02:58N 14°36' W 061°04'0 0.0
2018-Feb-17 02:28N 14°36' W 061°04'0 0.0
2018-Feb-17 01:58N 14°36' W 061°04'0 0.0
2018-Feb-17 01:28N 14°36' W 061°04'0 0.0
2018-Feb-17 00:52N 14°36' W 061°04'0 0.0
2018-Feb-17 00:13N 14°36' W 061°04'0 0.0
2018-Feb-16 23:58N 14°36' W 061°04'0 0.0
2018-Feb-16 23:28N 14°36' W 061°04'0 0.0
2018-Feb-16 12:04N 14°36' W 061°04'0 0.0
2018-Feb-16 11:52N 14°36' W 061°04'0 0.1
2018-Feb-16 11:27N 14°36' W 061°04'2 4.2
2018-Feb-16 11:00N 14°35' W 061°05'5 9.5
2018-Feb-16 10:30N 14°31' W 061°08'4 8.4
2018-Feb-16 10:00N 14°27' W 061°10'5 9.4
2018-Feb-16 09:26N 14°22' W 061°12'  

Dump ship's entire track history